Aérodrome :
LOGIN :

S'inscrire | Disclaimer

   EN    FR    IT 

 










Légende :    VFR   VFR Marginal   IFR   IFR Intensif   IFR Très Intensif
Visi : 
Plafond : 
>= 8 km
>= 3000ft
5 à 8 km
1000 à 3000 ft
1500m à 5 km
500 à 1000 ft
800 à 1500m
200 à 500 ft
< 800m
< 200 ft
Symboles :   Orages  Brouillard  Fortes neiges  Fortes précipitations  Vent > 20 kt
SIGMETs :   Divers  Orages  Givrage  Turbulence  Onde Orograph.  Cendres Volcan.






- Altitude de l'aérodrome : 231 ft
- Code IATA : WTN


EGXW - RAF Waddington

DERNIER METAR :
  • 221620Z 12012KT 9999 SCT030 BKN100 07/06 Q0996 TEMPO -RA SCT010 RMK BLU TEMPO GRN

METARs EXPIRÉS :
  • 221550Z 12011KT 9999 FEW030 SCT100 BKN220 07/06 Q0996 TEMPO -RA SCT010 RMK BLU TEMPO GRN
  • 221520Z 11011KT 9999 FEW012 SCT120 BKN220 08/07 Q0996 TEMPO SCT012 RMK BLU TEMPO GRN
  • 221450Z 12011KT 9999 FEW009 SCT050 BKN250 08/07 Q0996 TEMPO SCT009 RMK BLU TEMPO GRN
  • 221421Z 12011KT 9999 BKN009 08/07 Q0996 TEMPO FEW009 RMK GRN TEMPO BLU
  • 221350Z 13011KT 9999 BKN008 08/07 Q0996 TEMPO FEW008 RMK GRN TEMPO BLU

TAF TAF EGXW
Valide du 22 à 15h jusqu'au 23 à 09h UTC


221334Z 2215/2309 14012KT 9999 BKN030
TEMPO 2215/2302 SCT008
TEMPO 2216/2218 6000 RA
BECMG 2302/2304 -RA SCT008
PROB30
TEMPO 2304/2309 4000 RA SCT005



MET'MAP, la Météo Aéronautique d'un coup d'oeil ! - Copyright ORBIFLY Décembre 2007 - Disclaimer

ORBIFLY MET'MAP TEAM :

Programmation & Développement : Alexandra Zaïnal
Conception & Développement : Baudouin d'Aumeries
Co-Programmation & Développement : Marc-Olivier Méhu
Soutien technique & logistique : Manuel Goepfert

Contact : metmap@orbifly.com




SOURCES & CREDITS :

   NOAA